sensor_id;sensor_type;location;lat;lon;timestamp;pressure;altitude;pressure_sealevel;temperature;humidity
63339;BME280;70568;51.378;-1.342;2023-07-08T00:00:09;99807.90;;;20.74;21.60
63339;BME280;70568;51.378;-1.342;2023-07-08T00:02:36;99806.27;;;16.09;23.54
63339;BME280;70568;51.378;-1.342;2023-07-08T00:05:04;99803.32;;;19.88;22.47
63339;BME280;70568;51.378;-1.342;2023-07-08T00:07:30;99804.85;;;20.55;22.02
63339;BME280;70568;51.378;-1.342;2023-07-08T00:09:57;99799.32;;;19.64;22.61
63339;BME280;70568;51.378;-1.342;2023-07-08T00:12:23;99797.33;;;19.24;22.55
63339;BME280;70568;51.378;-1.342;2023-07-08T00:14:50;99796.03;;;18.75;22.86
63339;BME280;70568;51.378;-1.342;2023-07-08T00:17:17;99793.66;;;19.47;22.81
63339;BME280;70568;51.378;-1.342;2023-07-08T00:19:45;99792.55;;;18.19;22.65
63339;BME280;70568;51.378;-1.342;2023-07-08T00:22:12;99792.57;;;18.43;22.83
63339;BME280;70568;51.378;-1.342;2023-07-08T00:24:40;99792.54;;;19.68;22.60
63339;BME280;70568;51.378;-1.342;2023-07-08T00:27:10;99789.15;;;19.59;22.15
63339;BME280;70568;51.378;-1.342;2023-07-08T00:29:36;99793.71;;;17.97;23.42
63339;BME280;70568;51.378;-1.342;2023-07-08T00:32:09;99790.22;;;18.13;23.04
63339;BME280;70568;51.378;-1.342;2023-07-08T00:34:36;99786.03;;;17.94;23.14
63339;BME280;70568;51.378;-1.342;2023-07-08T00:37:03;99776.81;;;18.20;23.29
63339;BME280;70568;51.378;-1.342;2023-07-08T00:39:29;99768.16;;;17.83;23.28
63339;BME280;70568;51.378;-1.342;2023-07-08T00:41:58;99768.76;;;18.66;22.89
63339;BME280;70568;51.378;-1.342;2023-07-08T00:44:26;99768.11;;;18.97;22.61
63339;BME280;70568;51.378;-1.342;2023-07-08T00:47:02;99769.44;;;19.34;22.53
63339;BME280;70568;51.378;-1.342;2023-07-08T00:49:35;99771.26;;;20.59;22.05
63339;BME280;70568;51.378;-1.342;2023-07-08T00:52:35;99772.96;;;18.24;22.33
63339;BME280;70568;51.378;-1.342;2023-07-08T00:55:05;99768.81;;;17.52;23.25
63339;BME280;70568;51.378;-1.342;2023-07-08T00:57:35;99760.28;;;18.73;22.59
63339;BME280;70568;51.378;-1.342;2023-07-08T01:00:05;99757.65;;;17.50;22.90
63339;BME280;70568;51.378;-1.342;2023-07-08T01:02:36;99751.72;;;17.21;23.17
63339;BME280;70568;51.378;-1.342;2023-07-08T01:05:06;99754.57;;;18.20;22.65
63339;BME280;70568;51.378;-1.342;2023-07-08T01:07:38;99753.15;;;18.11;23.14
63339;BME280;70568;51.378;-1.342;2023-07-08T01:10:10;99758.46;;;20.47;22.37
63339;BME280;70568;51.378;-1.342;2023-07-08T01:12:41;99749.50;;;17.40;23.27
63339;BME280;70568;51.378;-1.342;2023-07-08T01:15:10;99745.66;;;16.74;23.36
63339;BME280;70568;51.378;-1.342;2023-07-08T01:17:37;99743.00;;;18.91;23.14
63339;BME280;70568;51.378;-1.342;2023-07-08T01:20:06;99745.41;;;17.42;23.42
63339;BME280;70568;51.378;-1.342;2023-07-08T01:22:34;99753.81;;;17.58;23.34
63339;BME280;70568;51.378;-1.342;2023-07-08T01:25:01;99756.38;;;16.55;23.19
63339;BME280;70568;51.378;-1.342;2023-07-08T01:27:29;99746.34;;;17.42;23.10
63339;BME280;70568;51.378;-1.342;2023-07-08T01:29:58;99742.15;;;17.08;23.34
63339;BME280;70568;51.378;-1.342;2023-07-08T01:32:25;99740.32;;;18.05;23.62
63339;BME280;70568;51.378;-1.342;2023-07-08T01:34:54;99740.92;;;16.59;23.73
63339;BME280;70568;51.378;-1.342;2023-07-08T01:37:26;99750.80;;;19.05;23.21
63339;BME280;70568;51.378;-1.342;2023-07-08T01:39:52;99746.68;;;18.17;22.63
63339;BME280;70568;51.378;-1.342;2023-07-08T01:42:19;99743.73;;;19.04;22.80
63339;BME280;70568;51.378;-1.342;2023-07-08T01:44:46;99744.46;;;18.00;23.61
63339;BME280;70568;51.378;-1.342;2023-07-08T01:47:18;99738.33;;;16.87;23.78
63339;BME280;70568;51.378;-1.342;2023-07-08T01:49:47;99740.93;;;18.70;23.35
63339;BME280;70568;51.378;-1.342;2023-07-08T01:52:16;99741.44;;;18.14;23.09
63339;BME280;70568;51.378;-1.342;2023-07-08T01:54:44;99739.83;;;18.76;22.99
63339;BME280;70568;51.378;-1.342;2023-07-08T01:57:11;99739.81;;;19.27;22.82
63339;BME280;70568;51.378;-1.342;2023-07-08T01:59:38;99739.26;;;16.67;23.39
63339;BME280;70568;51.378;-1.342;2023-07-08T02:02:05;99733.22;;;18.33;23.23
63339;BME280;70568;51.378;-1.342;2023-07-08T02:04:32;99738.87;;;19.33;22.72
63339;BME280;70568;51.378;-1.342;2023-07-08T02:07:00;99735.88;;;18.28;22.80
63339;BME280;70568;51.378;-1.342;2023-07-08T02:09:27;99736.58;;;18.60;22.99
63339;BME280;70568;51.378;-1.342;2023-07-08T02:11:54;99728.54;;;17.26;23.47
63339;BME280;70568;51.378;-1.342;2023-07-08T02:14:21;99726.48;;;17.54;22.99
63339;BME280;70568;51.378;-1.342;2023-07-08T02:16:48;99728.82;;;16.37;23.91
63339;BME280;70568;51.378;-1.342;2023-07-08T02:19:15;99710.29;;;17.35;23.66
63339;BME280;70568;51.378;-1.342;2023-07-08T02:21:42;99711.77;;;18.55;23.57
63339;BME280;70568;51.378;-1.342;2023-07-08T02:24:10;99741.62;;;18.17;24.36
63339;BME280;70568;51.378;-1.342;2023-07-08T02:26:36;99726.18;;;19.94;23.53
63339;BME280;70568;51.378;-1.342;2023-07-08T02:29:03;99701.57;;;16.90;25.21
63339;BME280;70568;51.378;-1.342;2023-07-08T02:31:30;99717.14;;;16.30;26.30
63339;BME280;70568;51.378;-1.342;2023-07-08T02:33:57;99732.19;;;16.05;25.09
63339;BME280;70568;51.378;-1.342;2023-07-08T02:36:24;99718.64;;;16.91;24.50
63339;BME280;70568;51.378;-1.342;2023-07-08T02:38:51;99725.24;;;17.15;25.19
63339;BME280;70568;51.378;-1.342;2023-07-08T02:41:18;99735.84;;;17.78;24.15
63339;BME280;70568;51.378;-1.342;2023-07-08T02:43:46;99732.70;;;18.45;23.97
63339;BME280;70568;51.378;-1.342;2023-07-08T02:46:13;99731.91;;;18.50;24.27
63339;BME280;70568;51.378;-1.342;2023-07-08T02:48:40;99742.14;;;17.85;24.46
63339;BME280;70568;51.378;-1.342;2023-07-08T02:51:07;99738.58;;;18.23;24.00
63339;BME280;70568;51.378;-1.342;2023-07-08T02:53:33;99736.08;;;17.69;24.09
63339;BME280;70568;51.378;-1.342;2023-07-08T02:56:00;99744.42;;;18.11;23.90
63339;BME280;70568;51.378;-1.342;2023-07-08T02:58:27;99746.58;;;19.08;24.13
63339;BME280;70568;51.378;-1.342;2023-07-08T03:00:55;99744.07;;;17.74;24.15
63339;BME280;70568;51.378;-1.342;2023-07-08T03:03:22;99743.84;;;16.61;24.98
63339;BME280;70568;51.378;-1.342;2023-07-08T03:05:58;99738.25;;;18.24;24.59
63339;BME280;70568;51.378;-1.342;2023-07-08T03:08:25;99733.81;;;16.80;24.92
63339;BME280;70568;51.378;-1.342;2023-07-08T03:10:56;99733.72;;;16.73;24.66
63339;BME280;70568;51.378;-1.342;2023-07-08T03:13:23;99728.88;;;17.22;24.78
63339;BME280;70568;51.378;-1.342;2023-07-08T03:15:51;99731.63;;;17.82;24.68
63339;BME280;70568;51.378;-1.342;2023-07-08T03:18:18;99737.79;;;18.19;24.86
63339;BME280;70568;51.378;-1.342;2023-07-08T03:20:47;99750.33;;;15.59;25.86
63339;BME280;70568;51.378;-1.342;2023-07-08T03:23:15;99751.74;;;17.65;25.09
63339;BME280;70568;51.378;-1.342;2023-07-08T03:25:42;99755.65;;;17.28;25.24
63339;BME280;70568;51.378;-1.342;2023-07-08T03:28:09;99750.25;;;16.34;25.61
63339;BME280;70568;51.378;-1.342;2023-07-08T03:30:36;99756.65;;;16.72;25.26
63339;BME280;70568;51.378;-1.342;2023-07-08T03:33:03;99748.78;;;16.97;25.94
63339;BME280;70568;51.378;-1.342;2023-07-08T03:35:29;99746.20;;;16.10;26.09
63339;BME280;70568;51.378;-1.342;2023-07-08T03:37:56;99741.26;;;16.09;26.06
63339;BME280;70568;51.378;-1.342;2023-07-08T03:40:22;99740.00;;;16.32;26.38
63339;BME280;70568;51.378;-1.342;2023-07-08T03:42:48;99740.79;;;17.78;25.42
63339;BME280;70568;51.378;-1.342;2023-07-08T03:45:15;99742.66;;;18.29;25.18
63339;BME280;70568;51.378;-1.342;2023-07-08T03:47:43;99743.60;;;17.60;25.25
63339;BME280;70568;51.378;-1.342;2023-07-08T03:50:17;99744.85;;;17.26;25.43
63339;BME280;70568;51.378;-1.342;2023-07-08T03:52:45;99747.93;;;17.74;25.88
63339;BME280;70568;51.378;-1.342;2023-07-08T03:55:13;99752.91;;;18.14;25.67
63339;BME280;70568;51.378;-1.342;2023-07-08T03:57:39;99758.38;;;16.67;25.97
63339;BME280;70568;51.378;-1.342;2023-07-08T04:00:08;99762.02;;;17.81;25.64
63339;BME280;70568;51.378;-1.342;2023-07-08T04:02:34;99762.69;;;18.25;25.72
63339;BME280;70568;51.378;-1.342;2023-07-08T04:05:01;99767.11;;;17.10;25.48
63339;BME280;70568;51.378;-1.342;2023-07-08T04:07:28;99778.68;;;16.31;26.30
63339;BME280;70568;51.378;-1.342;2023-07-08T04:09:54;99779.97;;;16.84;26.31
63339;BME280;70568;51.378;-1.342;2023-07-08T04:12:21;99786.99;;;15.72;26.10
63339;BME280;70568;51.378;-1.342;2023-07-08T04:14:48;99790.80;;;16.75;25.96
63339;BME280;70568;51.378;-1.342;2023-07-08T04:17:17;99785.12;;;17.76;25.72
63339;BME280;70568;51.378;-1.342;2023-07-08T04:19:45;99788.53;;;17.16;25.35
63339;BME280;70568;51.378;-1.342;2023-07-08T04:22:12;99782.49;;;18.23;25.43
63339;BME280;70568;51.378;-1.342;2023-07-08T04:24:39;99789.14;;;17.45;25.63
63339;BME280;70568;51.378;-1.342;2023-07-08T04:27:07;99801.72;;;16.90;25.56
63339;BME280;70568;51.378;-1.342;2023-07-08T04:29:39;99806.48;;;18.00;25.24
63339;BME280;70568;51.378;-1.342;2023-07-08T04:32:06;99805.07;;;17.96;25.58
63339;BME280;70568;51.378;-1.342;2023-07-08T04:34:33;99802.56;;;16.08;26.21
63339;BME280;70568;51.378;-1.342;2023-07-08T04:36:59;99802.71;;;16.77;26.19
63339;BME280;70568;51.378;-1.342;2023-07-08T04:39:27;99808.50;;;17.32;25.76
63339;BME280;70568;51.378;-1.342;2023-07-08T04:41:53;99805.46;;;18.62;25.14
63339;BME280;70568;51.378;-1.342;2023-07-08T04:44:20;99801.21;;;19.83;24.78
63339;BME280;70568;51.378;-1.342;2023-07-08T04:46:50;99801.88;;;17.42;26.44
63339;BME280;70568;51.378;-1.342;2023-07-08T04:49:17;99812.73;;;18.87;25.50
63339;BME280;70568;51.378;-1.342;2023-07-08T04:51:45;99813.21;;;17.76;25.93
63339;BME280;70568;51.378;-1.342;2023-07-08T04:54:12;99818.72;;;17.15;26.00
63339;BME280;70568;51.378;-1.342;2023-07-08T04:56:42;99824.30;;;17.94;26.18
63339;BME280;70568;51.378;-1.342;2023-07-08T04:59:09;99820.15;;;17.24;26.02
63339;BME280;70568;51.378;-1.342;2023-07-08T05:01:37;99823.12;;;17.38;25.63
63339;BME280;70568;51.378;-1.342;2023-07-08T05:04:04;99823.63;;;16.88;25.70
63339;BME280;70568;51.378;-1.342;2023-07-08T05:06:34;99817.27;;;18.41;25.77
63339;BME280;70568;51.378;-1.342;2023-07-08T05:09:02;99826.61;;;18.66;25.57
63339;BME280;70568;51.378;-1.342;2023-07-08T05:11:30;99830.19;;;18.18;25.51
63339;BME280;70568;51.378;-1.342;2023-07-08T05:13:58;99834.78;;;17.73;26.37
63339;BME280;70568;51.378;-1.342;2023-07-08T05:16:24;99839.68;;;17.13;26.07
63339;BME280;70568;51.378;-1.342;2023-07-08T05:18:52;99845.15;;;17.13;25.98
63339;BME280;70568;51.378;-1.342;2023-07-08T05:21:20;99846.53;;;16.79;26.18
63339;BME280;70568;51.378;-1.342;2023-07-08T05:23:48;99848.16;;;17.33;25.88
63339;BME280;70568;51.378;-1.342;2023-07-08T05:26:15;99855.32;;;18.66;25.76
63339;BME280;70568;51.378;-1.342;2023-07-08T05:28:44;99852.96;;;18.82;26.04
63339;BME280;70568;51.378;-1.342;2023-07-08T05:31:10;99851.92;;;17.05;25.85
63339;BME280;70568;51.378;-1.342;2023-07-08T05:33:37;99859.44;;;18.04;25.63
63339;BME280;70568;51.378;-1.342;2023-07-08T05:36:04;99857.60;;;19.26;24.81
63339;BME280;70568;51.378;-1.342;2023-07-08T05:38:30;99853.13;;;19.51;25.43
63339;BME280;70568;51.378;-1.342;2023-07-08T05:40:58;99855.56;;;19.65;25.14
63339;BME280;70568;51.378;-1.342;2023-07-08T05:43:26;99859.13;;;19.15;25.21
63339;BME280;70568;51.378;-1.342;2023-07-08T05:45:57;99867.69;;;20.33;25.25
63339;BME280;70568;51.378;-1.342;2023-07-08T05:48:24;99875.83;;;17.20;27.61
63339;BME280;70568;51.378;-1.342;2023-07-08T05:50:51;99875.67;;;19.28;26.63
63339;BME280;70568;51.378;-1.342;2023-07-08T05:53:19;99879.40;;;20.85;26.05
63339;BME280;70568;51.378;-1.342;2023-07-08T05:55:48;99873.57;;;16.95;28.04
63339;BME280;70568;51.378;-1.342;2023-07-08T05:58:14;99874.34;;;18.14;27.63
63339;BME280;70568;51.378;-1.342;2023-07-08T06:00:41;99872.66;;;20.46;27.14
63339;BME280;70568;51.378;-1.342;2023-07-08T06:03:08;99871.75;;;19.01;27.25
63339;BME280;70568;51.378;-1.342;2023-07-08T06:05:36;99877.24;;;18.31;28.18
63339;BME280;70568;51.378;-1.342;2023-07-08T06:08:04;99880.05;;;20.80;27.36
63339;BME280;70568;51.378;-1.342;2023-07-08T06:10:30;99883.24;;;18.64;29.35
63339;BME280;70568;51.378;-1.342;2023-07-08T06:12:57;99893.50;;;20.26;28.39
63339;BME280;70568;51.378;-1.342;2023-07-08T06:15:23;99892.77;;;18.26;29.51
63339;BME280;70568;51.378;-1.342;2023-07-08T06:17:50;99890.63;;;19.37;29.35
63339;BME280;70568;51.378;-1.342;2023-07-08T06:20:17;99895.04;;;20.61;28.68
63339;BME280;70568;51.378;-1.342;2023-07-08T06:22:45;99883.15;;;20.78;28.41
63339;BME280;70568;51.378;-1.342;2023-07-08T06:25:12;99883.34;;;20.84;27.90
63339;BME280;70568;51.378;-1.342;2023-07-08T06:27:39;99887.06;;;19.58;28.55
63339;BME280;70568;51.378;-1.342;2023-07-08T06:30:08;99885.56;;;20.31;27.92
63339;BME280;70568;51.378;-1.342;2023-07-08T06:32:36;99888.61;;;20.10;29.12
63339;BME280;70568;51.378;-1.342;2023-07-08T06:35:03;99899.09;;;18.75;30.36
63339;BME280;70568;51.378;-1.342;2023-07-08T06:37:30;99903.91;;;19.05;28.74
63339;BME280;70568;51.378;-1.342;2023-07-08T06:39:56;99909.58;;;21.22;28.62
63339;BME280;70568;51.378;-1.342;2023-07-08T06:42:23;99917.38;;;19.35;29.05
63339;BME280;70568;51.378;-1.342;2023-07-08T06:44:50;99914.78;;;21.80;27.65
63339;BME280;70568;51.378;-1.342;2023-07-08T06:47:17;99913.00;;;18.86;29.36
63339;BME280;70568;51.378;-1.342;2023-07-08T06:49:45;99916.40;;;20.71;28.32
63339;BME280;70568;51.378;-1.342;2023-07-08T06:52:12;99923.56;;;18.96;29.18
63339;BME280;70568;51.378;-1.342;2023-07-08T06:54:38;99925.89;;;19.04;28.14
63339;BME280;70568;51.378;-1.342;2023-07-08T06:57:05;99921.21;;;20.12;27.40
63339;BME280;70568;51.378;-1.342;2023-07-08T06:59:33;99926.18;;;19.69;27.22
63339;BME280;70568;51.378;-1.342;2023-07-08T07:02:00;99928.23;;;20.67;25.78
63339;BME280;70568;51.378;-1.342;2023-07-08T07:04:28;99936.01;;;19.28;27.24
63339;BME280;70568;51.378;-1.342;2023-07-08T07:06:55;99941.85;;;19.92;26.72
63339;BME280;70568;51.378;-1.342;2023-07-08T07:09:21;99946.14;;;18.93;27.21
63339;BME280;70568;51.378;-1.342;2023-07-08T07:11:47;99948.80;;;19.48;26.90
63339;BME280;70568;51.378;-1.342;2023-07-08T07:14:14;99952.16;;;17.28;27.93
63339;BME280;70568;51.378;-1.342;2023-07-08T07:16:40;99955.03;;;17.65;28.20
63339;BME280;70568;51.378;-1.342;2023-07-08T07:19:07;99947.89;;;18.35;27.39
63339;BME280;70568;51.378;-1.342;2023-07-08T07:21:34;99951.36;;;20.89;25.99
63339;BME280;70568;51.378;-1.342;2023-07-08T07:24:01;99953.63;;;20.74;26.80
63339;BME280;70568;51.378;-1.342;2023-07-08T07:26:27;99964.72;;;18.46;28.01
63339;BME280;70568;51.378;-1.342;2023-07-08T07:28:55;99969.63;;;20.06;27.33
63339;BME280;70568;51.378;-1.342;2023-07-08T07:31:22;99968.53;;;21.72;26.43
63339;BME280;70568;51.378;-1.342;2023-07-08T07:33:49;99964.68;;;20.45;27.43
63339;BME280;70568;51.378;-1.342;2023-07-08T07:36:17;99962.75;;;20.05;27.64
63339;BME280;70568;51.378;-1.342;2023-07-08T07:38:45;99959.84;;;20.47;26.98
63339;BME280;70568;51.378;-1.342;2023-07-08T07:41:12;99957.94;;;22.10;28.58
63339;BME280;70568;51.378;-1.342;2023-07-08T07:43:39;99965.39;;;21.74;28.60
63339;BME280;70568;51.378;-1.342;2023-07-08T07:46:06;99980.51;;;15.97;32.40
63339;BME280;70568;51.378;-1.342;2023-07-08T07:48:32;99983.67;;;20.42;29.98
63339;BME280;70568;51.378;-1.342;2023-07-08T07:50:59;99993.20;;;20.63;28.26
63339;BME280;70568;51.378;-1.342;2023-07-08T07:53:26;100017.20;;;20.78;29.15
63339;BME280;70568;51.378;-1.342;2023-07-08T07:55:56;100039.39;;;20.24;29.53
63339;BME280;70568;51.378;-1.342;2023-07-08T07:58:23;100076.59;;;19.00;31.30
63339;BME280;70568;51.378;-1.342;2023-07-08T08:00:49;100093.03;;;19.84;30.56
63339;BME280;70568;51.378;-1.342;2023-07-08T08:03:16;100089.18;;;18.28;30.68
63339;BME280;70568;51.378;-1.342;2023-07-08T08:05:44;100066.24;;;18.27;29.72
63339;BME280;70568;51.378;-1.342;2023-07-08T08:08:11;100035.23;;;21.34;29.54
63339;BME280;70568;51.378;-1.342;2023-07-08T08:10:38;100028.50;;;20.27;33.06
63339;BME280;70568;51.378;-1.342;2023-07-08T08:13:04;100028.52;;;19.97;34.10
63339;BME280;70568;51.378;-1.342;2023-07-08T08:15:31;100033.47;;;19.06;33.56
63339;BME280;70568;51.378;-1.342;2023-07-08T08:17:58;100034.05;;;19.43;34.13
63339;BME280;70568;51.378;-1.342;2023-07-08T08:20:25;100039.14;;;18.46;33.46
63339;BME280;70568;51.378;-1.342;2023-07-08T08:22:52;100048.89;;;17.86;33.21
63339;BME280;70568;51.378;-1.342;2023-07-08T08:25:20;100064.70;;;19.12;32.57
63339;BME280;70568;51.378;-1.342;2023-07-08T08:27:48;100075.00;;;18.19;33.04
63339;BME280;70568;51.378;-1.342;2023-07-08T08:30:14;100081.62;;;17.36;33.05
63339;BME280;70568;51.378;-1.342;2023-07-08T08:32:40;100064.16;;;18.28;31.16
63339;BME280;70568;51.378;-1.342;2023-07-08T08:35:08;100044.19;;;19.03;31.73
63339;BME280;70568;51.378;-1.342;2023-07-08T08:37:35;100045.41;;;18.73;30.85
63339;BME280;70568;51.378;-1.342;2023-07-08T08:40:01;100047.64;;;19.52;30.35
63339;BME280;70568;51.378;-1.342;2023-07-08T08:42:34;100063.19;;;19.15;30.25
63339;BME280;70568;51.378;-1.342;2023-07-08T08:45:03;100068.37;;;19.35;30.63
63339;BME280;70568;51.378;-1.342;2023-07-08T08:47:35;100077.06;;;18.87;30.12
63339;BME280;70568;51.378;-1.342;2023-07-08T08:50:16;100078.72;;;18.94;30.03
63339;BME280;70568;51.378;-1.342;2023-07-08T08:52:46;100061.15;;;19.65;30.10
63339;BME280;70568;51.378;-1.342;2023-07-08T08:55:14;100063.96;;;17.29;31.80
63339;BME280;70568;51.378;-1.342;2023-07-08T08:57:45;100059.99;;;19.51;30.34
63339;BME280;70568;51.378;-1.342;2023-07-08T09:00:19;100056.04;;;19.50;29.95
63339;BME280;70568;51.378;-1.342;2023-07-08T09:02:55;100056.11;;;19.75;30.35
63339;BME280;70568;51.378;-1.342;2023-07-08T09:05:25;100055.11;;;20.11;29.30
63339;BME280;70568;51.378;-1.342;2023-07-08T09:08:04;100047.29;;;19.46;30.32
63339;BME280;70568;51.378;-1.342;2023-07-08T09:10:51;100010.79;;;22.87;28.75
63339;BME280;70568;51.378;-1.342;2023-07-08T09:13:29;100042.45;;;19.76;30.76
63339;BME280;70568;51.378;-1.342;2023-07-08T09:16:04;100037.68;;;19.48;31.36
63339;BME280;70568;51.378;-1.342;2023-07-08T09:18:36;100014.84;;;19.71;31.20
63339;BME280;70568;51.378;-1.342;2023-07-08T09:21:15;100022.95;;;18.57;31.46
63339;BME280;70568;51.378;-1.342;2023-07-08T09:23:46;100047.19;;;18.34;31.19
63339;BME280;70568;51.378;-1.342;2023-07-08T09:26:19;100070.63;;;17.23;32.35
63339;BME280;70568;51.378;-1.342;2023-07-08T09:28:48;100083.45;;;19.41;31.03
63339;BME280;70568;51.378;-1.342;2023-07-08T09:31:23;100080.34;;;19.07;31.21
63339;BME280;70568;51.378;-1.342;2023-07-08T09:33:52;100085.87;;;17.52;31.71
63339;BME280;70568;51.378;-1.342;2023-07-08T09:36:23;100099.80;;;17.72;31.67
63339;BME280;70568;51.378;-1.342;2023-07-08T09:38:51;100099.30;;;17.02;31.63
63339;BME280;70568;51.378;-1.342;2023-07-08T09:41:30;100083.56;;;19.76;30.74
63339;BME280;70568;51.378;-1.342;2023-07-08T09:44:12;100073.46;;;21.26;28.83
63339;BME280;70568;51.378;-1.342;2023-07-08T09:46:41;100044.27;;;22.20;29.63
63339;BME280;70568;51.378;-1.342;2023-07-08T09:49:15;100028.23;;;20.33;31.50
63339;BME280;70568;51.378;-1.342;2023-07-08T09:51:44;100041.72;;;15.99;34.06
63339;BME280;70568;51.378;-1.342;2023-07-08T09:54:11;100051.01;;;16.56;33.44
63339;BME280;70568;51.378;-1.342;2023-07-08T09:56:42;100061.59;;;18.29;33.03
63339;BME280;70568;51.378;-1.342;2023-07-08T09:59:12;100080.90;;;17.47;33.30
63339;BME280;70568;51.378;-1.342;2023-07-08T10:01:46;100092.46;;;15.39;34.21
63339;BME280;70568;51.378;-1.342;2023-07-08T10:04:13;100083.39;;;17.39;33.01
63339;BME280;70568;51.378;-1.342;2023-07-08T10:06:40;100075.16;;;17.69;32.45
63339;BME280;70568;51.378;-1.342;2023-07-08T10:09:12;100082.63;;;17.07;32.66
63339;BME280;70568;51.378;-1.342;2023-07-08T10:11:42;100091.37;;;16.49;33.42
63339;BME280;70568;51.378;-1.342;2023-07-08T10:14:22;100098.00;;;17.15;34.25
63339;BME280;70568;51.378;-1.342;2023-07-08T10:16:51;100101.13;;;16.48;34.38
63339;BME280;70568;51.378;-1.342;2023-07-08T10:19:19;100104.55;;;16.85;33.51
63339;BME280;70568;51.378;-1.342;2023-07-08T10:21:53;100099.56;;;17.02;33.68
63339;BME280;70568;51.378;-1.342;2023-07-08T10:24:32;100089.93;;;18.90;32.38
63339;BME280;70568;51.378;-1.342;2023-07-08T10:27:08;100063.51;;;19.80;32.52
63339;BME280;70568;51.378;-1.342;2023-07-08T10:29:45;100059.13;;;18.80;33.04
63339;BME280;70568;51.378;-1.342;2023-07-08T10:32:25;100059.95;;;17.65;32.83
63339;BME280;70568;51.378;-1.342;2023-07-08T10:35:01;100068.05;;;18.69;32.90
63339;BME280;70568;51.378;-1.342;2023-07-08T10:37:42;100081.99;;;17.83;32.42
63339;BME280;70568;51.378;-1.342;2023-07-08T10:40:22;100097.62;;;19.25;31.96
63339;BME280;70568;51.378;-1.342;2023-07-08T10:43:09;100127.27;;;17.88;32.33
63339;BME280;70568;51.378;-1.342;2023-07-08T10:45:43;100150.53;;;16.55;34.04
63339;BME280;70568;51.378;-1.342;2023-07-08T10:48:27;100146.31;;;17.01;33.72
63339;BME280;70568;51.378;-1.342;2023-07-08T10:51:09;100137.06;;;16.40;35.03
63339;BME280;70568;51.378;-1.342;2023-07-08T10:53:48;100129.79;;;15.23;35.68
63339;BME280;70568;51.378;-1.342;2023-07-08T10:56:23;100129.82;;;15.70;34.86
63339;BME280;70568;51.378;-1.342;2023-07-08T10:59:09;100131.48;;;16.27;34.06
63339;BME280;70568;51.378;-1.342;2023-07-08T11:01:49;100124.94;;;15.27;35.08
63339;BME280;70568;51.378;-1.342;2023-07-08T11:04:29;100116.05;;;15.27;35.34
63339;BME280;70568;51.378;-1.342;2023-07-08T11:07:10;100109.44;;;16.99;34.80
63339;BME280;70568;51.378;-1.342;2023-07-08T11:09:44;100103.90;;;17.19;34.33
63339;BME280;70568;51.378;-1.342;2023-07-08T11:12:23;100098.12;;;18.54;33.02
63339;BME280;70568;51.378;-1.342;2023-07-08T11:14:58;100092.50;;;17.86;32.82
63339;BME280;70568;51.378;-1.342;2023-07-08T11:17:30;100091.27;;;16.91;33.10
63339;BME280;70568;51.378;-1.342;2023-07-08T11:20:02;100088.34;;;19.02;32.20
63339;BME280;70568;51.378;-1.342;2023-07-08T11:22:32;100085.21;;;19.95;32.07
63339;BME280;70568;51.378;-1.342;2023-07-08T11:25:01;100086.07;;;20.21;31.53
63339;BME280;70568;51.378;-1.342;2023-07-08T11:27:33;100090.76;;;19.68;32.02
63339;BME280;70568;51.378;-1.342;2023-07-08T11:30:06;100090.51;;;19.75;31.58
63339;BME280;70568;51.378;-1.342;2023-07-08T11:32:39;100093.04;;;19.39;31.58
63339;BME280;70568;51.378;-1.342;2023-07-08T11:35:17;100090.12;;;19.26;31.87
63339;BME280;70568;51.378;-1.342;2023-07-08T11:37:47;100094.48;;;19.86;30.78
63339;BME280;70568;51.378;-1.342;2023-07-08T11:40:19;100110.39;;;19.01;32.65
63339;BME280;70568;51.378;-1.342;2023-07-08T11:42:48;100121.63;;;19.94;31.44
63339;BME280;70568;51.378;-1.342;2023-07-08T11:45:25;100122.69;;;19.56;32.23
63339;BME280;70568;51.378;-1.342;2023-07-08T11:47:52;100125.05;;;16.66;35.20
63339;BME280;70568;51.378;-1.342;2023-07-08T11:50:21;100123.57;;;18.20;34.13
63339;BME280;70568;51.378;-1.342;2023-07-08T11:52:52;100119.91;;;18.26;34.00
63339;BME280;70568;51.378;-1.342;2023-07-08T11:55:23;100118.03;;;20.30;32.00
63339;BME280;70568;51.378;-1.342;2023-07-08T11:57:53;100119.76;;;18.79;33.41
63339;BME280;70568;51.378;-1.342;2023-07-08T12:00:23;100119.47;;;20.83;32.09
63339;BME280;70568;51.378;-1.342;2023-07-08T12:02:53;100119.44;;;18.48;33.24
63339;BME280;70568;51.378;-1.342;2023-07-08T12:05:30;100126.30;;;20.34;32.14
63339;BME280;70568;51.378;-1.342;2023-07-08T12:07:58;100134.80;;;19.65;32.33
63339;BME280;70568;51.378;-1.342;2023-07-08T12:10:28;100135.77;;;18.06;32.34
63339;BME280;70568;51.378;-1.342;2023-07-08T12:12:58;100145.57;;;18.63;32.60
63339;BME280;70568;51.378;-1.342;2023-07-08T12:15:26;100149.48;;;19.53;32.02
63339;BME280;70568;51.378;-1.342;2023-07-08T12:17:56;100155.67;;;21.49;31.05
63339;BME280;70568;51.378;-1.342;2023-07-08T12:20:26;100161.03;;;19.22;33.03
63339;BME280;70568;51.378;-1.342;2023-07-08T12:22:54;100161.76;;;19.16;32.90
63339;BME280;70568;51.378;-1.342;2023-07-08T12:25:23;100173.04;;;18.54;33.81
63339;BME280;70568;51.378;-1.342;2023-07-08T12:27:51;100177.03;;;18.70;34.00
63339;BME280;70568;51.378;-1.342;2023-07-08T12:30:17;100180.09;;;19.10;34.25
63339;BME280;70568;51.378;-1.342;2023-07-08T12:32:45;100189.83;;;18.23;34.89
63339;BME280;70568;51.378;-1.342;2023-07-08T12:35:21;100193.47;;;17.64;36.22
63339;BME280;70568;51.378;-1.342;2023-07-08T12:37:48;100193.50;;;19.64;34.26
63339;BME280;70568;51.378;-1.342;2023-07-08T12:40:15;100198.31;;;18.62;34.91
63339;BME280;70568;51.378;-1.342;2023-07-08T12:42:41;100201.95;;;19.92;34.02
63339;BME280;70568;51.378;-1.342;2023-07-08T12:45:14;100204.48;;;18.13;35.37
63339;BME280;70568;51.378;-1.342;2023-07-08T12:47:43;100210.09;;;19.62;34.75
63339;BME280;70568;51.378;-1.342;2023-07-08T12:50:11;100225.75;;;18.31;35.26
63339;BME280;70568;51.378;-1.342;2023-07-08T12:52:39;100229.21;;;19.02;34.31
63339;BME280;70568;51.378;-1.342;2023-07-08T12:55:09;100232.55;;;20.47;33.23